createdAt,value
2022-09-18T00:00:52.186Z, 42.03
2022-09-18T00:01:52.211Z, 42.04
2022-09-18T00:02:52.224Z, 42.24
2022-09-18T00:03:52.225Z, 42.38
2022-09-18T00:04:52.262Z, 42.35
2022-09-18T00:05:52.346Z, 42.13
2022-09-18T00:06:52.320Z, 42.22
2022-09-18T00:07:52.365Z, 42.28
2022-09-18T00:08:52.393Z, 42.23
2022-09-18T00:09:52.468Z, 42.30
2022-09-18T00:10:52.453Z, 42.24
2022-09-18T00:11:52.490Z, 42.16
2022-09-18T00:12:52.592Z, 42.33
2022-09-18T00:13:52.570Z, 42.34
2022-09-18T00:14:52.597Z, 42.16
2022-09-18T00:15:52.657Z, 42.02
2022-09-18T00:16:52.702Z, 41.92
2022-09-18T00:17:52.751Z, 42.01
2022-09-18T00:18:52.757Z, 42.24
2022-09-18T00:19:52.854Z, 42.38
2022-09-18T00:20:52.885Z, 42.33
2022-09-18T00:21:52.914Z, 42.28
2022-09-18T00:22:52.908Z, 41.88
2022-09-18T00:23:52.925Z, 42.27
2022-09-18T00:24:52.994Z, 42.25
2022-09-18T00:25:52.999Z, 42.27
2022-09-18T00:26:53.010Z, 41.75
2022-09-18T00:27:53.046Z, 42.09
2022-09-18T00:28:53.122Z, 42.26
2022-09-18T00:29:53.112Z, 42.24
2022-09-18T00:30:53.223Z, 42.26
2022-09-18T00:31:53.240Z, 42.28
2022-09-18T00:32:53.270Z, 42.21
2022-09-18T00:33:53.263Z, 42.04
2022-09-18T00:34:53.296Z, 42.02
2022-09-18T00:35:53.363Z, 42.24
2022-09-18T00:36:53.414Z, 42.27
2022-09-18T00:37:53.432Z, 42.10
2022-09-18T00:38:53.459Z, 42.15
2022-09-18T00:39:53.535Z, 42.10
2022-09-18T00:40:53.457Z, 42.23
2022-09-18T00:41:53.503Z, 42.10
2022-09-18T00:42:53.540Z, 42.07
2022-09-18T00:43:53.581Z, 42.40
2022-09-18T00:44:53.627Z, 42.21
2022-09-18T00:45:53.655Z, 42.41
2022-09-18T00:46:53.742Z, 42.25
2022-09-18T00:47:53.698Z, 41.64
2022-09-18T00:48:53.723Z, 42.04
2022-09-18T00:49:53.764Z, 42.30
2022-09-18T00:50:53.866Z, 42.25
2022-09-18T00:51:53.860Z, 42.08
2022-09-18T00:52:53.873Z, 42.24
2022-09-18T00:53:53.893Z, 42.06
2022-09-18T00:54:53.903Z, 41.99
2022-09-18T00:55:53.986Z, 42.22
2022-09-18T00:56:53.986Z, 42.15
2022-09-18T00:57:54.043Z, 41.80
2022-09-18T00:58:54.089Z, 41.83
2022-09-18T00:59:54.092Z, 41.95
2022-09-18T01:00:54.318Z, 42.22
2022-09-18T01:01:54.225Z, 42.02
2022-09-18T01:02:54.177Z, 42.21
2022-09-18T01:03:54.180Z, 42.06
2022-09-18T01:04:54.254Z, 40.81
2022-09-18T01:05:54.306Z, 39.90
2022-09-18T01:06:54.323Z, 40.49
2022-09-18T01:07:54.351Z, 39.34
2022-09-18T01:08:54.382Z, 39.74
2022-09-18T01:09:54.425Z, 40.98
2022-09-18T01:10:54.437Z, 39.63
2022-09-18T01:11:54.465Z, 42.47
2022-09-18T01:12:54.504Z, 41.81
2022-09-18T01:13:54.551Z, 43.06
2022-09-18T01:14:54.670Z, 43.18
2022-09-18T01:15:54.770Z, 42.92
2022-09-18T01:16:54.663Z, 43.59
2022-09-18T01:17:54.764Z, 43.57
2022-09-18T01:18:54.798Z, 43.68
2022-09-18T01:19:54.780Z, 43.57
2022-09-18T01:20:54.830Z, 44.40
2022-09-18T01:21:54.833Z, 44.33
2022-09-18T01:22:54.882Z, 44.63
2022-09-18T01:23:54.907Z, 44.03
2022-09-18T01:24:55.008Z, 43.68
2022-09-18T01:25:54.983Z, 43.94
2022-09-18T01:26:55.064Z, 43.88
2022-09-18T01:27:55.026Z, 43.29
2022-09-18T01:28:55.080Z, 45.79
2022-09-18T01:29:55.126Z, 46.17
2022-09-18T01:30:55.262Z, 45.19
2022-09-18T01:31:55.193Z, 45.52
2022-09-18T01:32:55.241Z, 44.88
2022-09-18T01:33:55.298Z, 45.12
2022-09-18T01:34:55.345Z, 46.03
2022-09-18T01:35:55.327Z, 47.14
2022-09-18T01:36:55.398Z, 47.54
2022-09-18T01:37:55.375Z, 49.98
2022-09-18T01:38:55.413Z, 49.68
2022-09-18T01:39:55.502Z, 49.84
2022-09-18T01:40:55.484Z, 50.43
2022-09-18T01:41:55.506Z, 50.66
2022-09-18T01:42:55.557Z, 50.54
2022-09-18T01:43:55.622Z, 50.11
2022-09-18T01:44:55.610Z, 50.41
2022-09-18T01:45:55.652Z, 51.43
2022-09-18T01:46:55.800Z, 55.50
2022-09-18T01:47:55.719Z, 56.14
2022-09-18T01:48:55.761Z, 56.99
2022-09-18T01:49:55.763Z, 56.84
2022-09-18T01:50:55.786Z, 57.24
2022-09-18T01:51:55.826Z, 57.17
2022-09-18T01:52:55.872Z, 57.87
2022-09-18T01:53:55.932Z, 57.60
2022-09-18T01:54:55.937Z, 57.70
2022-09-18T01:55:56.014Z, 58.03
2022-09-18T01:56:56.042Z, 59.30
2022-09-18T01:57:56.070Z, 60.67
2022-09-18T01:58:56.062Z, 61.19
2022-09-18T01:59:56.106Z, 60.36
2022-09-18T02:00:56.143Z, 61.99
2022-09-18T02:01:56.350Z, 61.94
2022-09-18T02:02:56.291Z, 62.67
2022-09-18T02:03:56.225Z, 63.51
2022-09-18T02:04:56.263Z, 63.15
2022-09-18T02:05:56.319Z, 62.47
2022-09-18T02:06:56.317Z, 62.75
2022-09-18T02:07:56.364Z, 63.54
2022-09-18T02:08:56.426Z, 63.99
2022-09-18T02:09:56.474Z, 63.84
2022-09-18T02:10:56.465Z, 62.96
2022-09-18T02:11:56.482Z, 63.62
2022-09-18T02:12:56.580Z, 63.06
2022-09-18T02:13:56.555Z, 63.54
2022-09-18T02:14:56.572Z, 64.33
2022-09-18T02:15:56.677Z, 64.53
2022-09-18T02:16:56.677Z, 65.99
2022-09-18T02:17:56.687Z, 65.84
2022-09-18T02:18:56.800Z, 66.45
2022-09-18T02:19:56.780Z, 66.82
2022-09-18T02:20:56.798Z, 66.56
2022-09-18T02:21:56.824Z, 66.09
2022-09-18T02:22:56.929Z, 66.30
2022-09-18T02:23:56.969Z, 66.31
2022-09-18T02:24:56.953Z, 66.04
2022-09-18T02:25:56.984Z, 65.79
2022-09-18T02:26:57.026Z, 66.11
2022-09-18T02:27:57.055Z, 66.04
2022-09-18T02:28:57.078Z, 65.94
2022-09-18T02:29:57.146Z, 66.40
2022-09-18T02:30:57.219Z, 65.97
2022-09-18T02:31:57.223Z, 66.15
2022-09-18T02:32:57.212Z, 66.48
2022-09-18T02:33:57.318Z, 66.60
2022-09-18T02:34:57.343Z, 65.86
2022-09-18T02:35:57.309Z, 65.87
2022-09-18T02:36:57.356Z, 66.04
2022-09-18T02:37:57.419Z, 67.19
2022-09-18T02:38:57.417Z, 66.43
2022-09-18T02:39:57.510Z, 67.03
2022-09-18T02:40:57.525Z, 66.54
2022-09-18T02:41:57.516Z, 65.68
2022-09-18T02:42:57.590Z, 65.24
2022-09-18T02:43:57.614Z, 66.10
2022-09-18T02:44:57.599Z, 66.22
2022-09-18T02:45:57.634Z, 64.63
2022-09-18T02:46:57.740Z, 65.46
2022-09-18T02:47:57.727Z, 63.64
2022-09-18T02:48:57.759Z, 63.20
2022-09-18T02:49:57.852Z, 64.09
2022-09-18T02:50:57.869Z, 63.75
2022-09-18T02:51:57.900Z, 63.66
2022-09-18T02:52:57.890Z, 62.75
2022-09-18T02:53:57.965Z, 64.16
2022-09-18T02:54:58.036Z, 63.14
2022-09-18T02:55:58.002Z, 64.03
2022-09-18T02:56:58.024Z, 63.63
2022-09-18T02:57:58.050Z, 63.88
2022-09-18T02:58:58.072Z, 63.43
2022-09-18T02:59:58.123Z, 63.21
2022-09-18T03:00:58.164Z, 63.88
2022-09-18T03:01:58.424Z, 63.77
2022-09-18T03:02:58.358Z, 63.63
2022-09-18T03:03:58.270Z, 63.86
2022-09-18T03:04:58.309Z, 63.53
2022-09-18T03:05:58.338Z, 63.86
2022-09-18T03:06:58.398Z, 64.10
2022-09-18T03:07:58.419Z, 64.06
2022-09-18T03:08:58.463Z, 62.88
2022-09-18T03:09:58.482Z, 64.56
2022-09-18T03:10:58.506Z, 63.34
2022-09-18T03:11:58.534Z, 64.11
2022-09-18T03:12:58.558Z, 64.40
2022-09-18T03:13:58.682Z, 63.80
2022-09-18T03:14:58.678Z, 63.98
2022-09-18T03:15:58.807Z, 63.01
2022-09-18T03:16:58.719Z, 64.48
2022-09-18T03:17:58.816Z, 63.45
2022-09-18T03:18:58.800Z, 64.35
2022-09-18T03:19:58.826Z, 63.99
2022-09-18T03:20:58.826Z, 64.03
2022-09-18T03:21:58.858Z, 63.46
2022-09-18T03:22:58.910Z, 63.41
2022-09-18T03:23:58.957Z, 63.46
2022-09-18T03:24:58.973Z, 63.37
2022-09-18T03:25:59.064Z, 63.52
2022-09-18T03:26:59.052Z, 63.77
2022-09-18T03:27:59.105Z, 63.19
2022-09-18T03:28:59.115Z, 63.35
2022-09-18T03:29:59.174Z, 63.17
2022-09-18T03:30:59.182Z, 63.47
2022-09-18T03:31:59.190Z, 64.01
2022-09-18T03:32:59.240Z, 63.89
2022-09-18T03:33:59.280Z, 63.05
2022-09-18T03:34:59.408Z, 63.35
2022-09-18T03:35:59.372Z, 64.36
2022-09-18T03:36:59.383Z, 64.12
2022-09-18T03:37:59.402Z, 62.88
2022-09-18T03:38:59.504Z, 63.71
2022-09-18T03:39:59.565Z, 63.93
2022-09-18T03:40:59.489Z, 63.96
2022-09-18T03:41:59.531Z, 63.46
2022-09-18T03:42:59.615Z, 63.53
2022-09-18T03:43:59.612Z, 63.75
2022-09-18T03:44:59.699Z, 63.65
2022-09-18T03:45:59.670Z, 62.81
2022-09-18T03:46:59.808Z, 63.82
2022-09-18T03:47:59.774Z, 63.41
2022-09-18T03:48:59.772Z, 63.40
2022-09-18T03:49:59.816Z, 63.76
2022-09-18T03:50:59.892Z, 62.93
2022-09-18T03:51:59.885Z, 62.96
2022-09-18T03:52:59.894Z, 63.32
2022-09-18T03:53:59.998Z, 63.05
2022-09-18T03:54:59.982Z, 63.40
2022-09-18T03:55:59.990Z, 63.57
2022-09-18T03:57:00.076Z, 63.12
2022-09-18T03:58:00.058Z, 63.73
2022-09-18T03:59:00.077Z, 62.33
2022-09-18T04:00:00.210Z, 63.15
2022-09-18T04:01:00.201Z, 63.01
2022-09-18T04:02:00.281Z, 63.15
2022-09-18T04:03:00.265Z, 64.72
2022-09-18T04:04:00.260Z, 64.96
2022-09-18T04:05:00.290Z, 65.09
2022-09-18T04:06:00.313Z, 64.10
2022-09-18T04:07:00.361Z, 63.59
2022-09-18T04:08:00.394Z, 63.94
2022-09-18T04:09:00.541Z, 64.39
2022-09-18T04:10:00.488Z, 64.34
2022-09-18T04:11:00.508Z, 63.59
2022-09-18T04:12:00.526Z, 63.80
2022-09-18T04:13:00.549Z, 64.78
2022-09-18T04:14:00.601Z, 64.42
2022-09-18T04:15:00.619Z, 65.43
2022-09-18T04:16:00.682Z, 64.95
2022-09-18T04:17:00.735Z, 63.87
2022-09-18T04:18:00.735Z, 64.73
2022-09-18T04:19:00.758Z, 64.22
2022-09-18T04:20:00.797Z, 64.68
2022-09-18T04:21:00.896Z, 64.43
2022-09-18T04:22:00.880Z, 64.48
2022-09-18T04:23:00.966Z, 68.39
2022-09-18T04:24:01.067Z, 67.95
2022-09-18T04:25:00.976Z, 69.22
2022-09-18T04:26:01.016Z, 68.63
2022-09-18T04:27:01.116Z, 68.54
2022-09-18T04:28:01.097Z, 67.57
2022-09-18T04:29:01.095Z, 67.91
2022-09-18T04:30:01.187Z, 68.81
2022-09-18T04:31:01.225Z, 68.42
2022-09-18T04:32:01.223Z, 67.75
2022-09-18T04:33:01.266Z, 68.51
2022-09-18T04:34:01.285Z, 67.38
2022-09-18T04:35:01.386Z, 67.48
2022-09-18T04:36:01.426Z, 68.01
2022-09-18T04:37:01.413Z, 67.82
2022-09-18T04:38:01.470Z, 67.52
2022-09-18T04:39:01.596Z, 66.64
2022-09-18T04:40:01.671Z, 66.08
2022-09-18T04:41:01.579Z, 65.95
2022-09-18T04:42:01.631Z, 66.07
2022-09-18T04:43:01.604Z, 66.01
2022-09-18T04:44:01.670Z, 66.50
2022-09-18T04:45:01.655Z, 65.62
2022-09-18T04:46:01.739Z, 66.17
2022-09-18T04:47:01.788Z, 66.08
2022-09-18T04:48:01.783Z, 67.20
2022-09-18T04:49:01.871Z, 66.57
2022-09-18T04:50:01.867Z, 67.08
2022-09-18T04:51:01.876Z, 66.80
2022-09-18T04:52:01.913Z, 66.72
2022-09-18T04:53:01.959Z, 67.30
2022-09-18T04:54:01.971Z, 66.66
2022-09-18T04:55:02.094Z, 66.72
2022-09-18T04:56:02.064Z, 67.08
2022-09-18T04:57:02.099Z, 66.59
2022-09-18T04:58:02.109Z, 66.74
2022-09-18T04:59:02.128Z, 66.79
2022-09-18T05:00:02.200Z, 67.06
2022-09-18T05:01:02.278Z, 67.24
2022-09-18T05:02:02.318Z, 66.61
2022-09-18T05:03:02.255Z, 67.04
2022-09-18T05:04:02.339Z, 66.84
2022-09-18T05:05:02.332Z, 67.70
2022-09-18T05:06:02.408Z, 67.62
2022-09-18T05:07:02.408Z, 66.57
2022-09-18T05:08:02.431Z, 66.52
2022-09-18T05:09:02.561Z, 67.27
2022-09-18T05:10:02.509Z, 66.94
2022-09-18T05:11:02.591Z, 67.28
2022-09-18T05:12:02.579Z, 68.13
2022-09-18T05:13:02.601Z, 67.86
2022-09-18T05:14:02.632Z, 66.63
2022-09-18T05:15:02.678Z, 67.31
2022-09-18T05:16:02.765Z, 66.48
2022-09-18T05:17:02.753Z, 66.25
2022-09-18T05:18:04.093Z, 67.42
2022-09-18T05:19:02.899Z, 67.69
2022-09-18T05:20:02.875Z, 67.58
2022-09-18T05:21:02.917Z, 66.58
2022-09-18T05:22:02.940Z, 66.57
2022-09-18T05:23:02.940Z, 65.97
2022-09-18T05:24:03.038Z, 65.87
2022-09-18T05:25:03.083Z, 66.20
2022-09-18T05:26:03.068Z, 64.99
2022-09-18T05:27:03.104Z, 65.74
2022-09-18T05:28:03.117Z, 65.54
2022-09-18T05:29:03.148Z, 65.63
2022-09-18T05:30:03.192Z, 65.12
2022-09-18T05:31:03.249Z, 64.78
2022-09-18T05:32:03.335Z, 64.60
2022-09-18T05:33:03.368Z, 66.28
2022-09-18T05:34:03.342Z, 65.95
2022-09-18T05:35:03.403Z, 64.72
2022-09-18T05:36:03.404Z, 66.33
2022-09-18T05:37:03.421Z, 66.12
2022-09-18T05:38:03.508Z, 66.23
2022-09-18T05:39:03.590Z, 66.56
2022-09-18T05:40:03.585Z, 66.63
2022-09-18T05:41:03.597Z, 65.46
2022-09-18T05:42:03.603Z, 65.43
2022-09-18T05:43:03.622Z, 65.64
2022-09-18T05:44:03.643Z, 65.75
2022-09-18T05:45:03.683Z, 65.96
2022-09-18T05:46:03.723Z, 65.22
2022-09-18T05:47:03.767Z, 65.53
2022-09-18T05:48:03.859Z, 66.08
2022-09-18T05:49:03.842Z, 65.96
2022-09-18T05:50:03.849Z, 65.91
2022-09-18T05:51:03.858Z, 65.81
2022-09-18T05:52:03.905Z, 64.73
2022-09-18T05:53:03.928Z, 66.12
2022-09-18T05:54:04.115Z, 66.41
2022-09-18T05:55:04.048Z, 66.27
2022-09-18T05:56:04.047Z, 66.42
2022-09-18T05:57:04.070Z, 65.60
2022-09-18T05:58:04.142Z, 66.32
2022-09-18T05:59:04.177Z, 65.36
2022-09-18T06:00:04.148Z, 65.97
2022-09-18T06:01:04.248Z, 66.36
2022-09-18T06:02:04.294Z, 66.47
2022-09-18T06:03:04.352Z, 65.84
2022-09-18T06:04:04.358Z, 66.75
2022-09-18T06:05:04.348Z, 65.88
2022-09-18T06:06:04.371Z, 66.09
2022-09-18T06:07:04.462Z, 65.62
2022-09-18T06:08:04.438Z, 65.13
2022-09-18T06:09:04.536Z, 65.04
2022-09-18T06:10:04.587Z, 65.35
2022-09-18T06:11:04.575Z, 65.64
2022-09-18T06:12:04.584Z, 64.82
2022-09-18T06:13:04.634Z, 65.66
2022-09-18T06:14:04.637Z, 66.35
2022-09-18T06:15:04.678Z, 66.09
2022-09-18T06:16:04.750Z, 65.77
2022-09-18T06:17:04.765Z, 65.30
2022-09-18T06:18:04.850Z, 64.93
2022-09-18T06:19:04.823Z, 64.97
2022-09-18T06:20:04.896Z, 64.76
2022-09-18T06:21:04.887Z, 64.84
2022-09-18T06:22:04.923Z, 65.21
2022-09-18T06:23:04.950Z, 65.44
2022-09-18T06:24:04.984Z, 65.48
2022-09-18T06:25:05.009Z, 66.50
2022-09-18T06:26:05.111Z, 65.78
2022-09-18T06:27:05.146Z, 66.33
2022-09-18T06:28:05.172Z, 66.38
2022-09-18T06:29:05.225Z, 67.06
2022-09-18T06:30:05.196Z, 65.49
2022-09-18T06:31:05.325Z, 66.74
2022-09-18T06:32:05.273Z, 66.59
2022-09-18T06:33:05.300Z, 67.18
2022-09-18T06:34:05.309Z, 66.90
2022-09-18T06:35:05.356Z, 67.18
2022-09-18T06:36:05.419Z, 66.53
2022-09-18T06:37:05.448Z, 66.33
2022-09-18T06:38:05.557Z, 66.34
2022-09-18T06:39:05.552Z, 65.74
2022-09-18T06:40:05.578Z, 66.45
2022-09-18T06:41:05.563Z, 66.75
2022-09-18T06:42:05.595Z, 66.10
2022-09-18T06:43:05.631Z, 65.42
2022-09-18T06:44:05.660Z, 65.76
2022-09-18T06:45:05.696Z, 66.41
2022-09-18T06:46:05.717Z, 66.30
2022-09-18T06:47:05.779Z, 66.09
2022-09-18T06:48:05.778Z, 65.19
2022-09-18T06:49:05.811Z, 65.49
2022-09-18T06:50:05.882Z, 65.31
2022-09-18T06:51:05.885Z, 65.39
2022-09-18T06:52:05.910Z, 64.71
2022-09-18T06:53:08.909Z, 65.77
2022-09-18T06:54:05.974Z, 64.41
2022-09-18T06:55:06.091Z, 64.95
2022-09-18T06:56:06.057Z, 64.93
2022-09-18T06:57:06.075Z, 63.46
2022-09-18T06:58:06.150Z, 64.75
2022-09-18T06:59:06.153Z, 64.67
2022-09-18T07:00:06.227Z, 64.35
2022-09-18T07:01:06.361Z, 64.16
2022-09-18T07:02:06.339Z, 64.99
2022-09-18T07:03:06.278Z, 65.33
2022-09-18T07:04:06.349Z, 65.18
2022-09-18T07:05:06.403Z, 64.70
2022-09-18T07:06:06.426Z, 64.33
2022-09-18T07:07:06.421Z, 63.82
2022-09-18T07:08:06.433Z, 63.46
2022-09-18T07:09:06.469Z, 64.18
2022-09-18T07:10:09.161Z, 63.80
2022-09-18T07:11:06.604Z, 63.93
2022-09-18T07:12:06.641Z, 64.00
2022-09-18T07:13:06.672Z, 64.16
2022-09-18T07:14:06.648Z, 65.22
2022-09-18T07:15:06.705Z, 65.58
2022-09-18T07:16:06.780Z, 65.16
2022-09-18T07:17:06.743Z, 65.04
2022-09-18T07:18:06.770Z, 64.22
2022-09-18T07:19:06.858Z, 65.19
2022-09-18T07:20:06.854Z, 64.17
2022-09-18T07:21:06.921Z, 64.50
2022-09-18T07:22:06.912Z, 65.43
2022-09-18T07:23:07.967Z, 64.70
2022-09-18T07:24:06.983Z, 64.45
2022-09-18T07:25:07.093Z, 64.95
2022-09-18T07:26:07.076Z, 64.40
2022-09-18T07:27:07.167Z, 64.79
2022-09-18T07:28:07.153Z, 64.86
2022-09-18T07:29:10.007Z, 64.82
2022-09-18T07:30:07.187Z, 63.89
2022-09-18T07:31:07.487Z, 65.10
2022-09-18T07:32:07.287Z, 65.37
2022-09-18T07:33:07.293Z, 63.67
2022-09-18T07:34:07.375Z, 64.89
2022-09-18T07:35:07.413Z, 65.03
2022-09-18T07:36:07.405Z, 64.81
2022-09-18T07:37:07.477Z, 65.13
2022-09-18T07:38:07.465Z, 64.81
2022-09-18T07:39:07.497Z, 65.10
2022-09-18T07:40:07.561Z, 65.13
2022-09-18T07:41:07.609Z, 64.73
2022-09-18T07:42:09.033Z, 64.72
2022-09-18T07:43:07.621Z, 64.77
2022-09-18T07:44:07.661Z, 64.97
2022-09-18T07:45:07.679Z, 64.85
2022-09-18T07:46:07.770Z, 65.15
2022-09-18T07:47:07.771Z, 64.64
2022-09-18T07:48:07.780Z, 65.34
2022-09-18T07:49:07.817Z, 65.44
2022-09-18T07:50:07.842Z, 64.81
2022-09-18T07:51:07.939Z, 64.99
2022-09-18T07:52:07.955Z, 64.21
2022-09-18T07:53:07.951Z, 64.30
2022-09-18T07:54:08.033Z, 62.52
2022-09-18T07:55:08.083Z, 62.11
2022-09-18T07:56:08.074Z, 62.38
2022-09-18T07:57:08.087Z, 62.81
2022-09-18T07:58:08.101Z, 63.17
2022-09-18T07:59:08.128Z, 61.93
2022-09-18T08:00:08.240Z, 62.52
2022-09-18T08:01:08.273Z, 63.62
2022-09-18T08:02:08.464Z, 62.84
2022-09-18T08:03:08.339Z, 62.69
2022-09-18T08:04:08.356Z, 62.98
2022-09-18T08:05:08.574Z, 62.63
2022-09-18T08:06:08.408Z, 62.68
2022-09-18T08:07:08.506Z, 62.36
2022-09-18T08:08:08.541Z, 62.58
2022-09-18T08:09:08.524Z, 63.33
2022-09-18T08:10:08.618Z, 63.11
2022-09-18T08:11:08.584Z, 62.49
2022-09-18T08:12:08.609Z, 63.94
2022-09-18T08:13:08.673Z, 63.02
2022-09-18T08:14:08.671Z, 62.35
2022-09-18T08:15:08.714Z, 61.76
2022-09-18T08:16:08.833Z, 62.60
2022-09-18T08:17:08.841Z, 62.01
2022-09-18T08:18:08.883Z, 61.69
2022-09-18T08:19:08.838Z, 61.31
2022-09-18T08:20:08.870Z, 60.67
2022-09-18T08:21:10.754Z, 61.60
2022-09-18T08:22:08.978Z, 61.15
2022-09-18T08:23:09.132Z, 61.06
2022-09-18T08:24:09.097Z, 61.16
2022-09-18T08:25:09.090Z, 60.91
2022-09-18T08:26:09.103Z, 60.54
2022-09-18T08:27:09.153Z, 60.86
2022-09-18T08:28:09.206Z, 60.91
2022-09-18T08:29:09.196Z, 61.23
2022-09-18T08:30:09.287Z, 61.49
2022-09-18T08:31:09.402Z, 60.76
2022-09-18T08:32:10.079Z, 61.56
2022-09-18T08:33:09.343Z, 60.90
2022-09-18T08:34:09.365Z, 61.23
2022-09-18T08:35:09.432Z, 61.03
2022-09-18T08:36:09.432Z, 61.61
2022-09-18T08:37:09.471Z, 60.97
2022-09-18T08:38:09.559Z, 60.56
2022-09-18T08:39:09.533Z, 60.46
2022-09-18T08:40:09.646Z, 61.20
2022-09-18T08:41:09.595Z, 61.13
2022-09-18T08:42:09.643Z, 61.16
2022-09-18T08:43:09.734Z, 61.16
2022-09-18T08:44:09.717Z, 60.95
2022-09-18T08:45:09.737Z, 60.88
2022-09-18T08:46:09.840Z, 60.09
2022-09-18T08:47:09.826Z, 60.37
2022-09-18T08:48:09.884Z, 60.39
2022-09-18T08:49:09.856Z, 60.83
2022-09-18T08:50:09.963Z, 61.65
2022-09-18T08:51:09.939Z, 60.83
2022-09-18T08:52:10.027Z, 61.39
2022-09-18T08:53:09.988Z, 60.13
2022-09-18T08:54:10.070Z, 61.09
2022-09-18T08:55:10.097Z, 61.03
2022-09-18T08:56:10.135Z, 61.26
2022-09-18T08:57:12.245Z, 60.83
2022-09-18T08:58:10.159Z, 60.67
2022-09-18T08:59:10.227Z, 60.92
2022-09-18T09:00:10.273Z, 61.00
2022-09-18T09:01:10.290Z, 60.97
2022-09-18T09:02:10.493Z, 61.14
2022-09-18T09:03:10.412Z, 61.03
2022-09-18T09:04:10.393Z, 60.60
2022-09-18T09:05:10.466Z, 61.06
2022-09-18T09:06:10.488Z, 60.34
2022-09-18T09:07:10.472Z, 60.43
2022-09-18T09:08:10.507Z, 61.01
2022-09-18T09:09:14.950Z, 60.41
2022-09-18T09:10:10.619Z, 60.76
2022-09-18T09:11:10.660Z, 61.10
2022-09-18T09:12:10.646Z, 61.18
2022-09-18T09:13:10.665Z, 60.46
2022-09-18T09:14:10.685Z, 61.20
2022-09-18T09:15:10.794Z, 60.71
2022-09-18T09:16:10.922Z, 60.46
2022-09-18T09:17:10.831Z, 60.60
2022-09-18T09:18:10.859Z, 60.43
2022-09-18T09:19:10.881Z, 60.65
2022-09-18T09:20:10.911Z, 60.96
2022-09-18T09:21:11.912Z, 60.64
2022-09-18T09:22:10.968Z, 61.07
2022-09-18T09:23:11.024Z, 60.72
2022-09-18T09:24:11.067Z, 61.24
2022-09-18T09:25:11.125Z, 60.69
2022-09-18T09:26:11.129Z, 61.51
2022-09-18T09:27:11.154Z, 61.33
2022-09-18T09:28:15.661Z, 61.17
2022-09-18T09:29:11.269Z, 60.76
2022-09-18T09:30:11.293Z, 61.01
2022-09-18T09:31:11.408Z, 60.38
2022-09-18T09:32:11.336Z, 61.03
2022-09-18T09:33:11.351Z, 61.13
2022-09-18T09:34:11.455Z, 61.18
2022-09-18T09:35:11.454Z, 61.43
2022-09-18T09:36:11.462Z, 61.00
2022-09-18T09:37:11.544Z, 60.76
2022-09-18T09:38:11.549Z, 61.47
2022-09-18T09:39:11.559Z, 61.68
2022-09-18T09:40:11.716Z, 60.68
2022-09-18T09:41:11.651Z, 61.25
2022-09-18T09:42:11.687Z, 61.71
2022-09-18T09:43:11.722Z, 61.69
2022-09-18T09:44:11.810Z, 61.29
2022-09-18T09:45:11.850Z, 60.81
2022-09-18T09:46:11.876Z, 60.57
2022-09-18T09:47:12.041Z, 60.72
2022-09-18T09:48:11.889Z, 60.55
2022-09-18T09:49:11.916Z, 61.05
2022-09-18T09:50:12.030Z, 60.75
2022-09-18T09:51:12.002Z, 61.10
2022-09-18T09:52:12.014Z, 60.54
2022-09-18T09:53:12.053Z, 59.97
2022-09-18T09:54:12.137Z, 60.50
2022-09-18T09:55:12.109Z, 60.90
2022-09-18T09:56:12.197Z, 60.26
2022-09-18T09:57:12.191Z, 61.21
2022-09-18T09:58:12.211Z, 61.15
2022-09-18T09:59:12.293Z, 60.83
2022-09-18T10:00:12.314Z, 61.01
2022-09-18T10:01:12.481Z, 61.57
2022-09-18T10:02:12.486Z, 48.77
2022-09-18T10:03:12.382Z, 49.38
2022-09-18T10:04:12.401Z, 49.18
2022-09-18T10:05:12.439Z, 49.06
2022-09-18T10:06:12.498Z, 49.56
2022-09-18T10:07:12.555Z, 49.97
2022-09-18T10:08:12.552Z, 49.90
2022-09-18T10:09:12.627Z, 49.87
2022-09-18T10:10:12.617Z, 49.98
2022-09-18T10:11:12.626Z, 49.91
2022-09-18T10:12:12.741Z, 49.86
2022-09-18T10:13:12.710Z, 49.93
2022-09-18T10:14:12.728Z, 49.63
2022-09-18T10:15:12.797Z, 49.95
2022-09-18T10:16:12.846Z, 50.33
2022-09-18T10:17:12.829Z, 50.50
2022-09-18T10:18:16.233Z, 58.25
2022-09-18T10:19:12.943Z, 58.19
2022-09-18T10:20:12.978Z, 59.16
2022-09-18T10:21:12.962Z, 29.65
2022-09-18T10:22:13.032Z, 29.40
2022-09-18T10:23:13.034Z, 29.66
2022-09-18T10:24:13.042Z, 31.40
2022-09-18T10:25:13.087Z, 31.15
2022-09-18T10:26:13.120Z, 31.19
2022-09-18T10:27:13.218Z, 25.61
2022-09-18T10:28:13.195Z, 25.56
2022-09-18T10:29:13.193Z, 25.51
2022-09-18T10:30:13.346Z, 25.67
2022-09-18T10:31:13.346Z, 25.73
2022-09-18T10:32:13.295Z, 25.54
2022-09-18T10:33:13.318Z, 25.71
2022-09-18T10:34:13.400Z, 25.80
2022-09-18T10:35:13.388Z, 25.73
2022-09-18T10:36:13.410Z, 26.27
2022-09-18T10:37:13.450Z, 25.90
2022-09-18T10:38:13.475Z, 26.40
2022-09-18T10:39:13.512Z, 25.71
2022-09-18T10:40:13.684Z, 25.63
2022-09-18T10:41:13.565Z, 25.55
2022-09-18T10:42:13.596Z, 25.65
2022-09-18T10:43:13.647Z, 25.68
2022-09-18T10:44:13.695Z, 25.82
2022-09-18T10:45:13.726Z, 25.86
2022-09-18T10:46:13.819Z, 25.96
2022-09-18T10:47:13.857Z, 26.10
2022-09-18T10:48:13.832Z, 26.03
2022-09-18T10:49:13.878Z, 26.17
2022-09-18T10:50:13.882Z, 26.31
2022-09-18T10:51:13.885Z, 26.37
2022-09-18T10:52:13.935Z, 26.21
2022-09-18T10:53:13.981Z, 25.58
2022-09-18T11:01:05.993Z, 25.88
2022-09-18T11:01:14.387Z, 25.98
2022-09-18T11:02:14.352Z, 26.17
2022-09-18T11:03:14.331Z, 26.12
2022-09-18T11:04:14.326Z, 26.00
2022-09-18T11:05:14.419Z, 26.06
2022-09-18T11:06:14.417Z, 26.09
2022-09-18T11:07:14.448Z, 26.06
2022-09-18T11:08:14.521Z, 26.03
2022-09-18T11:09:14.488Z, 26.18
2022-09-18T11:10:14.509Z, 25.94
2022-09-18T11:11:14.549Z, 25.95
2022-09-18T11:12:14.588Z, 26.11
2022-09-18T11:13:14.605Z, 26.66
2022-09-18T11:14:14.620Z, 25.93
2022-09-18T11:15:14.703Z, 25.96
2022-09-18T11:16:14.765Z, 26.27
2022-09-18T11:17:14.751Z, 26.02
2022-09-18T11:18:14.781Z, 25.92
2022-09-18T11:19:14.852Z, 26.08
2022-09-18T11:20:14.833Z, 25.96
2022-09-18T11:21:14.893Z, 26.01
2022-09-18T11:22:14.898Z, 25.99
2022-09-18T11:23:14.996Z, 25.96
2022-09-18T11:24:14.974Z, 25.94
2022-09-18T11:25:15.006Z, 26.00
2022-09-18T11:26:15.042Z, 25.99
2022-09-18T11:27:15.104Z, 25.96
2022-09-18T11:28:15.183Z, 25.97
2022-09-18T11:29:15.146Z, 26.06
2022-09-18T11:30:15.214Z, 25.95
2022-09-18T11:31:15.253Z, 25.98
2022-09-18T11:32:15.304Z, 25.96
2022-09-18T11:33:15.284Z, 25.96
2022-09-18T11:34:15.383Z, 25.93
2022-09-18T11:35:15.406Z, 25.95
2022-09-18T11:36:15.396Z, 26.01
2022-09-18T11:37:15.479Z, 25.99
2022-09-18T11:38:15.468Z, 25.93
2022-09-18T11:39:15.480Z, 25.97
2022-09-18T11:40:15.653Z, 26.07
2022-09-18T11:41:15.614Z, 25.99
2022-09-18T11:42:15.610Z, 26.04
2022-09-18T11:43:15.601Z, 26.02
2022-09-18T11:44:15.678Z, 26.01
2022-09-18T11:45:15.727Z, 25.99
2022-09-18T11:46:15.801Z, 26.11
2022-09-18T11:47:15.848Z, 26.03
2022-09-18T11:48:15.792Z, 26.04
2022-09-18T11:49:15.792Z, 26.04
2022-09-18T11:50:15.891Z, 26.08
2022-09-18T11:51:15.910Z, 26.56
2022-09-18T11:52:15.914Z, 26.28
2022-09-18T11:53:15.937Z, 26.19
2022-09-18T11:54:15.968Z, 26.10
2022-09-18T11:55:16.056Z, 26.12
2022-09-18T11:56:16.044Z, 26.07
2022-09-18T11:57:16.075Z, 26.11
2022-09-18T11:58:16.082Z, 26.11
2022-09-18T11:59:16.112Z, 26.13
2022-09-18T12:00:16.162Z, 26.06
2022-09-18T12:01:16.209Z, 26.10
2022-09-18T12:02:16.332Z, 26.10
2022-09-18T12:03:16.355Z, 26.19
2022-09-18T12:04:16.311Z, 26.41
2022-09-18T12:05:16.346Z, 26.03
2022-09-18T12:06:16.358Z, 25.94
2022-09-18T12:07:16.406Z, 26.48
2022-09-18T12:08:15.085Z, 26.51
2022-09-18T12:09:15.110Z, 26.21
2022-09-18T12:10:15.154Z, 26.48
2022-09-18T12:11:15.193Z, 26.30
2022-09-18T12:12:15.227Z, 26.23
2022-09-18T12:13:15.295Z, 26.15
2022-09-18T12:14:15.293Z, 26.16
2022-09-18T12:15:15.330Z, 26.38
2022-09-18T12:16:15.396Z, 26.38
2022-09-18T12:17:15.390Z, 26.84
2022-09-18T12:18:15.468Z, 26.57
2022-09-18T12:19:15.446Z, 26.67
2022-09-18T12:20:15.472Z, 26.68
2022-09-18T12:21:15.498Z, 26.80
2022-09-18T12:22:15.591Z, 26.83
2022-09-18T12:23:15.640Z, 26.90
2022-09-18T12:24:15.617Z, 27.20
2022-09-18T12:25:15.628Z, 26.67
2022-09-18T12:26:15.722Z, 26.77
2022-09-18T12:27:15.721Z, 27.18
2022-09-18T12:28:15.784Z, 26.96
2022-09-18T12:29:15.767Z, 27.35
2022-09-18T12:30:15.766Z, 26.68
2022-09-18T12:31:15.895Z, 26.96
2022-09-18T12:32:15.833Z, 27.06
2022-09-18T12:33:15.859Z, 26.45
2022-09-18T12:34:15.908Z, 26.63
2022-09-18T12:35:15.918Z, 26.82